Historyczne dane pomiarowe

Dodano dane terminowe – wersja testowa.

Dane z okresu 1951-2019

Wersja bazy: 1.34 [2019-03-16, lista zmian], aktualizacja planowana na 2019-04-15

Dane meteo z obszaru Polski uzyskane na podstawie danych udostępnionych przez Instytut Meteorologii i Gospodarki Wodnej – Państwowy Instytut Badawczy.

 

Wybierz Datę:    

       

TemperaturaWilgotnośćWiatrCiśnienieOpadyŚniegCzas trwania zjawisk
 Stacja t tx tn tng RH VA  wxwx mslp ppp RRR   cm mm wxwxwxwxwxwxwx
1987-08-14 14.6 20.7 8.2 5.0 72.0- 7.0 4.0---- 0.4------------
1987-08-13 11.7 16.3 7.7 5.0 89.8- 5.3 4.3---- 0.1------------
1987-08-12 12.7 17.7 9.8 9.4 77.3- 4.7 3.3---- 0.0------------
1987-08-11 13.5 17.7 12.1 12.2 84.8- 6.7 3.0---- 4.3------------
1987-08-10 15.0 18.7 13.7 12.6 87.0- 7.0 4.0---- 3.2------------
1987-08-09 16.3 22.6 11.0 7.2 70.3- 3.7 2.0---- 3.5------------
1987-08-08 15.0 21.5 8.6 5.6 65.5- 3.7 3.0---- 0.0------------
1987-08-07 12.9 19.3 8.8 7.6 71.5- 3.7 4.7---- 0.0------------
1987-08-06 12.8 17.1 9.5 5.7 75.3- 6.0 3.7---- 0.3------------
1987-08-05 13.2 18.1 7.9 5.0 70.5- 2.0 3.3---- 0.0------------
1987-08-04 14.1 18.0 11.5 8.4 75.8- 6.7 3.0---- 1.3------------
1987-08-03 14.1 18.3 10.8 9.4 73.5- 5.0 3.7---- 0.0------------
1987-08-02 14.5 18.7 12.3 12.4 76.8- 6.3 1.7---- 0.5------------
1987-08-01 15.7 20.8 12.0 11.4 80.3- 8.0 2.7---- 6.7------------
1987-07-31 16.0 20.5 15.3 13.4 88.5- 8.0 1.3---- 10.1------------
1987-07-30 17.3 23.2 10.2 7.4 64.8- 5.3 0.7---- 3.8------------
1987-07-29 14.5 19.6 11.5 10.0 71.3- 6.7 2.7---- 0.0------------
1987-07-28 14.6 19.0 12.2 10.1 79.0- 7.3 3.0---- 0.8------------
1987-07-27 12.1 16.1 8.6 6.0 73.3- 6.7 2.7---- 4.0------------
1987-07-26 14.3 18.3 12.8 10.2 77.3- 6.3 1.7---- 0.1------------
1987-07-25 18.3 23.2 15.1 11.4 75.0- 6.3 1.7---- 0.0------------
1987-07-24 20.6 26.2 16.1 13.4 76.5- 5.7 1.7---- 0.0------------
1987-07-23 21.2 26.5 15.9 13.0 76.8- 3.3 0.7---- 0.0------------
1987-07-22 19.4 24.0 15.5 13.1 84.3- 6.0 0.3---- 0.0------------
1987-07-21 19.5 25.1 12.1 9.4 72.8- 2.0 0.3---- 0.0------------
1987-07-20 18.7 21.0 17.4 16.7 87.8- 6.7 1.0---- 0.3------------
1987-07-19 19.3 25.1 17.0 15.7 85.0- 8.0 2.0---- 1.2------------
1987-07-18 20.9 24.7 18.3 17.6 83.5- 5.0 3.0---- 0.0------------
1987-07-17 20.4 26.4 15.2 13.2 72.5- 6.0 2.7---- 6.7------------
1987-07-16 18.8 25.2 10.8 8.1 63.3- 4.3 2.3---- 0.0------------
1987-07-15 16.5 22.5 7.3 5.2 62.0- 0.3 0.7---- 0.0------------
1987-07-14 15.6 19.8 11.1 9.5 73.3- 2.3 3.7---- 0.0------------
1987-07-13 16.6 21.1 13.3 11.6 75.8- 3.7 3.0---- 0.0------------
1987-07-12 19.0 25.3 15.5 14.6 85.3- 6.7 1.3---- 20.3------------
1987-07-11 15.4 21.3 10.3 7.0 73.0- 5.7 2.0---- 24.3------------
1987-07-10 14.3 18.6 10.6 9.2 66.5- 4.0 4.7---- 0.0------------
1987-07-09 17.6 25.3 15.3 16.0 88.3- 7.3 2.0---- 1.2------------
1987-07-08 23.3 29.2 17.3 13.9 54.5- 3.0 4.3---- 3.8------------
1987-07-07 20.1 26.7 10.6 7.9 62.8- 1.7 3.0---- 0.0------------
1987-07-06 18.2 24.2 8.5 5.5 62.3- 0.3 1.3---- 0.0------------
1987-07-05 17.6 22.3 12.7 10.2 69.0- 2.7 2.3---- 0.0------------
1987-07-04 18.3 22.3 15.3 13.2 66.0- 6.0 2.3---- 0.0------------
1987-07-03 18.0 23.3 13.0 9.9 70.5- 3.3 2.3---- 0.0------------
1987-07-02 19.1 26.2 17.5 17.3 77.0- 5.0 3.0---- 0.0------------
1987-07-01 25.8 31.3 20.7 18.3 69.8- 3.3 4.0---- 1.0------------
1987-06-30 24.3 29.7 19.8 18.1 75.8- 5.3 1.0---- 0.0------------
1987-06-29 18.1 24.0 9.6 6.5 75.3- 3.3 1.7---- 0.0------------
1987-06-28 18.1 23.5 14.1 11.0 75.5- 7.0 3.0---- 0.0------------
1987-06-27 18.8 21.5 16.7 15.5 78.3- 6.7 1.7---- 0.0------------
1987-06-26 16.7 23.2 10.1 9.3 67.3- 7.7 1.7---- 0.8------------
1987-06-25 12.6 17.5 10.2 11.7 90.8- 6.7 1.3---- 4.2------------
1987-06-24 16.2 20.6 12.6 11.1 69.0- 6.0 2.7---- 3.7------------
1987-06-23 14.7 21.0 13.1 13.4 87.0- 8.0 1.3---- 0.1------------
1987-06-22 19.1 25.2 11.1 8.4 59.0- 5.7 1.3---- 1.0------------
1987-06-21 18.3 24.4 10.6 8.2 60.3- 5.3 0.7---- 0.0------------
1987-06-20 16.6 22.8 9.6 8.1 56.3- 3.0 2.0---- 0.0------------
1987-06-19 11.9 15.7 7.4 6.0 77.8- 6.0 2.3---- 2.6------------
1987-06-18 11.5 18.0 6.2 2.8 71.3- 4.3 2.0---- 1.0------------
1987-06-17 12.4 15.3 11.3 10.6 68.3- 6.3 2.7---- 0.0------------
1987-06-16 14.7 25.7 11.7 12.2 79.5- 8.0 4.0---- 0.4------------
401.0 ms

 

Źródłem pochodzenia danych jest Instytut Meteorologii i Gospodarki Wodnej – Państwowy Instytut Badawczy. Dane Instytutu Meteorologii i Gospodarki Wodnej – Państwowego Instytutu Badawczego zostały przetworzone.

Dane źródłowe można odnaleźć na stronie https://dane.imgw.pl